sensor_id;sensor_type;location;lat;lon;timestamp;pressure;altitude;pressure_sealevel;temperature;humidity
55466;BME280;41329;41.594;23.810;2023-07-29T00:00:34;95092.78;;;21.44;46.24
55466;BME280;41329;41.594;23.810;2023-07-29T00:03:00;95114.38;;;21.47;46.07
55466;BME280;41329;41.594;23.810;2023-07-29T00:05:25;95102.06;;;21.29;46.96
55466;BME280;41329;41.594;23.810;2023-07-29T00:07:52;95119.63;;;21.33;46.85
55466;BME280;41329;41.594;23.810;2023-07-29T00:10:17;95100.59;;;21.24;46.84
55466;BME280;41329;41.594;23.810;2023-07-29T00:12:42;95112.63;;;21.25;46.87
55466;BME280;41329;41.594;23.810;2023-07-29T00:15:08;95117.56;;;21.21;47.36
55466;BME280;41329;41.594;23.810;2023-07-29T00:17:34;95114.53;;;21.15;47.08
55466;BME280;41329;41.594;23.810;2023-07-29T00:19:59;95114.97;;;21.14;47.53
55466;BME280;41329;41.594;23.810;2023-07-29T00:22:24;95109.53;;;21.07;47.39
55466;BME280;41329;41.594;23.810;2023-07-29T00:24:53;95118.56;;;21.14;47.32
55466;BME280;41329;41.594;23.810;2023-07-29T00:27:23;95115.31;;;21.16;47.35
55466;BME280;41329;41.594;23.810;2023-07-29T00:29:49;95111.72;;;21.15;47.32
55466;BME280;41329;41.594;23.810;2023-07-29T00:32:14;95114.53;;;21.15;47.47
55466;BME280;41329;41.594;23.810;2023-07-29T00:34:40;95113.03;;;21.11;46.81
55466;BME280;41329;41.594;23.810;2023-07-29T00:37:05;95111.91;;;21.08;46.80
55466;BME280;41329;41.594;23.810;2023-07-29T00:39:31;95103.75;;;20.98;47.33
55466;BME280;41329;41.594;23.810;2023-07-29T00:41:57;95091.53;;;20.88;47.87
55466;BME280;41329;41.594;23.810;2023-07-29T00:44:22;95084.34;;;20.87;47.61
55466;BME280;41329;41.594;23.810;2023-07-29T00:46:49;95102.88;;;20.85;47.49
55466;BME280;41329;41.594;23.810;2023-07-29T00:49:15;95103.44;;;20.80;47.39
55466;BME280;41329;41.594;23.810;2023-07-29T00:51:40;95090.28;;;20.61;48.09
55466;BME280;41329;41.594;23.810;2023-07-29T00:54:06;95098.53;;;20.68;48.41
55466;BME280;41329;41.594;23.810;2023-07-29T00:56:31;95100.53;;;20.67;47.91
55466;BME280;41329;41.594;23.810;2023-07-29T00:58:57;95108.53;;;20.69;48.37
55466;BME280;41329;41.594;23.810;2023-07-29T01:01:27;95108.66;;;20.65;48.65
55466;BME280;41329;41.594;23.810;2023-07-29T01:03:52;95099.25;;;20.56;48.07
55466;BME280;41329;41.594;23.810;2023-07-29T01:06:35;95119.63;;;20.60;47.67
55466;BME280;41329;41.594;23.810;2023-07-29T01:09:10;95110.34;;;20.47;47.79
55466;BME280;41329;41.594;23.810;2023-07-29T01:11:45;95127.91;;;20.51;48.27
55466;BME280;41329;41.594;23.810;2023-07-29T01:14:35;95106.22;;;20.19;48.87
55466;BME280;41329;41.594;23.810;2023-07-29T01:17:08;95112.34;;;20.30;48.73
55466;BME280;41329;41.594;23.810;2023-07-29T01:22:07;95112.97;;;20.22;49.21
55466;BME280;41329;41.594;23.810;2023-07-29T01:24:33;95112.16;;;20.21;49.14
55466;BME280;41329;41.594;23.810;2023-07-29T01:26:58;95102.28;;;20.17;48.88
55466;BME280;41329;41.594;23.810;2023-07-29T01:29:26;95106.97;;;20.04;49.81
55466;BME280;41329;41.594;23.810;2023-07-29T01:31:54;95101.41;;;20.00;50.43
55466;BME280;41329;41.594;23.810;2023-07-29T01:34:35;95087.09;;;19.95;50.00
55466;BME280;41329;41.594;23.810;2023-07-29T01:37:05;95084.06;;;19.89;50.13
55466;BME280;41329;41.594;23.810;2023-07-29T01:39:36;95101.69;;;20.06;50.32
55466;BME280;41329;41.594;23.810;2023-07-29T01:42:02;95105.81;;;20.01;50.19
55466;BME280;41329;41.594;23.810;2023-07-29T01:44:28;95107.75;;;20.04;49.95
55466;BME280;41329;41.594;23.810;2023-07-29T01:46:55;95106.97;;;20.04;49.86
55466;BME280;41329;41.594;23.810;2023-07-29T01:49:21;95102.81;;;19.92;50.18
55466;BME280;41329;41.594;23.810;2023-07-29T01:51:46;95113.19;;;19.95;50.41
55466;BME280;41329;41.594;23.810;2023-07-29T01:54:11;95100.97;;;19.86;50.71
55466;BME280;41329;41.594;23.810;2023-07-29T01:56:37;95102.53;;;19.87;51.24
55466;BME280;41329;41.594;23.810;2023-07-29T01:59:02;95113.53;;;19.81;51.28
55466;BME280;41329;41.594;23.810;2023-07-29T02:01:28;95123.44;;;19.86;50.95
55466;BME280;41329;41.594;23.810;2023-07-29T02:03:53;95110.28;;;19.83;51.47
55466;BME280;41329;41.594;23.810;2023-07-29T02:06:21;95109.38;;;19.86;51.69
55466;BME280;41329;41.594;23.810;2023-07-29T02:08:46;95104.38;;;19.77;52.03
55466;BME280;41329;41.594;23.810;2023-07-29T02:11:12;95107.72;;;19.72;51.37
55466;BME280;41329;41.594;23.810;2023-07-29T02:13:37;95120.88;;;19.75;51.34
55466;BME280;41329;41.594;23.810;2023-07-29T02:16:03;95121.28;;;19.74;51.82
55466;BME280;41329;41.594;23.810;2023-07-29T02:18:28;95126.00;;;19.61;51.91
55466;BME280;41329;41.594;23.810;2023-07-29T02:20:54;95112.41;;;19.59;51.73
55466;BME280;41329;41.594;23.810;2023-07-29T02:23:19;95107.31;;;19.54;52.49
55466;BME280;41329;41.594;23.810;2023-07-29T02:25:45;95134.78;;;19.63;52.86
55466;BME280;41329;41.594;23.810;2023-07-29T02:28:10;95110.53;;;19.53;52.41
55466;BME280;41329;41.594;23.810;2023-07-29T02:30:36;95117.75;;;19.54;51.96
55466;BME280;41329;41.594;23.810;2023-07-29T02:33:02;95114.78;;;19.61;51.88
55466;BME280;41329;41.594;23.810;2023-07-29T02:35:27;95123.63;;;19.59;51.95
55466;BME280;41329;41.594;23.810;2023-07-29T02:37:53;95116.19;;;19.33;52.19
55466;BME280;41329;41.594;23.810;2023-07-29T02:40:18;95124.16;;;19.35;52.28
55466;BME280;41329;41.594;23.810;2023-07-29T02:42:46;95120.31;;;19.29;52.48
55466;BME280;41329;41.594;23.810;2023-07-29T02:45:11;95113.16;;;19.24;52.55
55466;BME280;41329;41.594;23.810;2023-07-29T02:47:37;95123.53;;;19.27;52.72
55466;BME280;41329;41.594;23.810;2023-07-29T02:50:03;95124.38;;;19.24;52.59
55466;BME280;41329;41.594;23.810;2023-07-29T02:52:28;95129.06;;;19.31;52.24
55466;BME280;41329;41.594;23.810;2023-07-29T02:54:53;95127.13;;;19.28;52.15
55466;BME280;41329;41.594;23.810;2023-07-29T02:57:19;95113.34;;;19.14;52.68
55466;BME280;41329;41.594;23.810;2023-07-29T02:59:45;95128.81;;;19.22;52.55
55466;BME280;41329;41.594;23.810;2023-07-29T03:02:11;95125.38;;;19.14;52.81
55466;BME280;41329;41.594;23.810;2023-07-29T03:04:36;95112.72;;;19.06;52.77
55466;BME280;41329;41.594;23.810;2023-07-29T03:07:02;95121.47;;;19.08;52.67
55466;BME280;41329;41.594;23.810;2023-07-29T03:09:28;95129.13;;;19.08;53.21
55466;BME280;41329;41.594;23.810;2023-07-29T03:11:53;95120.13;;;18.97;53.55
55466;BME280;41329;41.594;23.810;2023-07-29T03:14:20;95136.00;;;19.03;53.15
55466;BME280;41329;41.594;23.810;2023-07-29T03:16:46;95142.47;;;19.00;52.51
55466;BME280;41329;41.594;23.810;2023-07-29T03:19:12;95140.66;;;18.90;52.77
55466;BME280;41329;41.594;23.810;2023-07-29T03:21:37;95136.78;;;18.84;53.40
55466;BME280;41329;41.594;23.810;2023-07-29T03:24:03;95123.44;;;18.69;53.60
55466;BME280;41329;41.594;23.810;2023-07-29T03:26:28;95141.69;;;18.80;53.88
55466;BME280;41329;41.594;23.810;2023-07-29T03:28:54;95150.50;;;18.79;53.69
55466;BME280;41329;41.594;23.810;2023-07-29T03:31:20;95146.13;;;18.78;53.92
55466;BME280;41329;41.594;23.810;2023-07-29T03:33:45;95142.59;;;18.74;54.03
55466;BME280;41329;41.594;23.810;2023-07-29T03:36:11;95145.81;;;18.72;54.33
55466;BME280;41329;41.594;23.810;2023-07-29T03:38:36;95152.31;;;18.46;54.08
55466;BME280;41329;41.594;23.810;2023-07-29T03:41:06;95149.50;;;18.46;54.38
55466;BME280;41329;41.594;23.810;2023-07-29T03:43:31;95160.41;;;18.41;54.35
55466;BME280;41329;41.594;23.810;2023-07-29T03:45:57;95151.13;;;18.44;54.42
55466;BME280;41329;41.594;23.810;2023-07-29T03:48:22;95154.72;;;18.44;55.35
55466;BME280;41329;41.594;23.810;2023-07-29T03:50:47;95154.66;;;18.48;55.68
55466;BME280;41329;41.594;23.810;2023-07-29T03:53:13;95162.28;;;18.47;55.85
55466;BME280;41329;41.594;23.810;2023-07-29T03:55:38;95155.63;;;18.38;55.53
55466;BME280;41329;41.594;23.810;2023-07-29T03:58:03;95168.81;;;18.41;55.59
55466;BME280;41329;41.594;23.810;2023-07-29T04:00:29;95165.72;;;18.32;55.88
55466;BME280;41329;41.594;23.810;2023-07-29T04:02:54;95168.75;;;17.91;56.87
55466;BME280;41329;41.594;23.810;2023-07-29T04:05:20;95171.38;;;18.02;56.87
55466;BME280;41329;41.594;23.810;2023-07-29T04:07:45;95162.53;;;18.07;56.58
55466;BME280;41329;41.594;23.810;2023-07-29T04:10:11;95167.97;;;18.17;56.76
55466;BME280;41329;41.594;23.810;2023-07-29T04:12:37;95168.63;;;18.25;56.38
55466;BME280;41329;41.594;23.810;2023-07-29T04:15:02;95164.59;;;18.26;56.38
55466;BME280;41329;41.594;23.810;2023-07-29T04:17:28;95169.31;;;18.32;56.51
55466;BME280;41329;41.594;23.810;2023-07-29T04:19:53;95172.44;;;18.38;56.01
55466;BME280;41329;41.594;23.810;2023-07-29T04:22:18;95184.81;;;18.40;56.17
55466;BME280;41329;41.594;23.810;2023-07-29T04:24:44;95172.78;;;18.40;56.13
55466;BME280;41329;41.594;23.810;2023-07-29T04:27:09;95173.91;;;18.46;56.38
55466;BME280;41329;41.594;23.810;2023-07-29T04:29:35;95183.81;;;18.50;56.63
55466;BME280;41329;41.594;23.810;2023-07-29T04:32:01;95151.63;;;18.39;57.06
55466;BME280;41329;41.594;23.810;2023-07-29T04:34:27;95181.72;;;18.58;56.94
55466;BME280;41329;41.594;23.810;2023-07-29T04:36:52;95183.72;;;18.57;56.68
55466;BME280;41329;41.594;23.810;2023-07-29T04:39:18;95187.75;;;18.56;56.73
55466;BME280;41329;41.594;23.810;2023-07-29T04:41:43;95184.53;;;18.58;56.92
55466;BME280;41329;41.594;23.810;2023-07-29T04:44:09;95180.00;;;18.64;56.88
55466;BME280;41329;41.594;23.810;2023-07-29T04:46:36;95183.84;;;18.73;57.76
55466;BME280;41329;41.594;23.810;2023-07-29T04:49:01;95172.19;;;18.75;57.28
55466;BME280;41329;41.594;23.810;2023-07-29T04:51:27;95185.44;;;18.94;57.41
55466;BME280;41329;41.594;23.810;2023-07-29T04:53:53;95177.53;;;18.89;56.62
55466;BME280;41329;41.594;23.810;2023-07-29T04:56:19;95177.72;;;19.01;56.68
55466;BME280;41329;41.594;23.810;2023-07-29T04:58:44;95183.47;;;19.14;56.51
55466;BME280;41329;41.594;23.810;2023-07-29T05:01:10;95180.16;;;19.19;56.40
55466;BME280;41329;41.594;23.810;2023-07-29T05:03:35;95168.66;;;19.13;55.98
55466;BME280;41329;41.594;23.810;2023-07-29T05:06:02;95169.66;;;19.23;56.11
55466;BME280;41329;41.594;23.810;2023-07-29T05:08:28;95193.06;;;19.36;55.73
55466;BME280;41329;41.594;23.810;2023-07-29T05:10:54;95194.09;;;19.45;55.78
55466;BME280;41329;41.594;23.810;2023-07-29T05:13:20;95200.84;;;19.48;55.89
55466;BME280;41329;41.594;23.810;2023-07-29T05:15:47;95200.50;;;19.46;56.00
55466;BME280;41329;41.594;23.810;2023-07-29T05:18:13;95199.63;;;19.49;56.09
55466;BME280;41329;41.594;23.810;2023-07-29T05:20:38;95197.03;;;19.38;56.79
55466;BME280;41329;41.594;23.810;2023-07-29T05:23:04;95205.03;;;19.40;57.30
55466;BME280;41329;41.594;23.810;2023-07-29T05:25:29;95194.31;;;19.35;57.25
55466;BME280;41329;41.594;23.810;2023-07-29T05:27:55;95201.88;;;19.38;57.24
55466;BME280;41329;41.594;23.810;2023-07-29T05:30:20;95209.56;;;19.34;57.55
55466;BME280;41329;41.594;23.810;2023-07-29T05:32:46;95198.56;;;19.43;57.43
55466;BME280;41329;41.594;23.810;2023-07-29T05:35:11;95210.94;;;19.45;57.54
55466;BME280;41329;41.594;23.810;2023-07-29T05:37:39;95201.66;;;19.48;57.51
55466;BME280;41329;41.594;23.810;2023-07-29T05:40:06;95211.53;;;19.56;57.18
55466;BME280;41329;41.594;23.810;2023-07-29T05:42:32;95204.97;;;19.63;56.97
55466;BME280;41329;41.594;23.810;2023-07-29T05:44:57;95214.41;;;19.72;56.59
55466;BME280;41329;41.594;23.810;2023-07-29T05:47:23;95214.66;;;19.78;56.15
55466;BME280;41329;41.594;23.810;2023-07-29T05:49:48;95215.09;;;19.76;55.65
55466;BME280;41329;41.594;23.810;2023-07-29T05:52:14;95209.69;;;19.85;56.08
55466;BME280;41329;41.594;23.810;2023-07-29T05:54:40;95198.28;;;19.92;55.43
55466;BME280;41329;41.594;23.810;2023-07-29T05:57:05;95208.44;;;20.06;55.52
55466;BME280;41329;41.594;23.810;2023-07-29T05:59:31;95198.41;;;20.05;54.74
55466;BME280;41329;41.594;23.810;2023-07-29T06:01:56;95207.19;;;20.07;54.47
55466;BME280;41329;41.594;23.810;2023-07-29T06:04:22;95198.75;;;20.07;54.99
55466;BME280;41329;41.594;23.810;2023-07-29T06:06:48;95203.16;;;20.27;54.61
55466;BME280;41329;41.594;23.810;2023-07-29T06:09:13;95202.69;;;20.29;54.28
55466;BME280;41329;41.594;23.810;2023-07-29T06:11:39;95209.84;;;20.49;53.55
55466;BME280;41329;41.594;23.810;2023-07-29T06:14:04;95214.50;;;20.56;52.98
55466;BME280;41329;41.594;23.810;2023-07-29T06:16:29;95210.03;;;20.58;52.80
55466;BME280;41329;41.594;23.810;2023-07-29T06:18:55;95205.97;;;20.75;52.11
55466;BME280;41329;41.594;23.810;2023-07-29T06:21:20;95198.13;;;20.83;51.93
55466;BME280;41329;41.594;23.810;2023-07-29T06:23:46;95199.75;;;20.84;51.87
55466;BME280;41329;41.594;23.810;2023-07-29T06:26:12;95193.13;;;20.90;51.90
55466;BME280;41329;41.594;23.810;2023-07-29T06:28:38;95200.00;;;21.05;50.67
55466;BME280;41329;41.594;23.810;2023-07-29T06:31:03;95196.75;;;20.91;50.28
55466;BME280;41329;41.594;23.810;2023-07-29T06:33:28;95188.25;;;20.94;50.53
55466;BME280;41329;41.594;23.810;2023-07-29T06:35:54;95192.41;;;21.18;50.40
55466;BME280;41329;41.594;23.810;2023-07-29T06:38:19;95179.09;;;21.35;50.30
55466;BME280;41329;41.594;23.810;2023-07-29T06:40:47;95185.69;;;21.57;49.13
55466;BME280;41329;41.594;23.810;2023-07-29T06:43:13;95174.91;;;21.68;49.51
55466;BME280;41329;41.594;23.810;2023-07-29T06:45:38;95183.09;;;21.91;48.60
55466;BME280;41329;41.594;23.810;2023-07-29T06:48:04;95175.41;;;21.79;48.14
55466;BME280;41329;41.594;23.810;2023-07-29T06:50:29;95180.28;;;21.91;47.30
55466;BME280;41329;41.594;23.810;2023-07-29T06:52:55;95178.94;;;21.95;47.50
55466;BME280;41329;41.594;23.810;2023-07-29T06:55:20;95175.91;;;21.90;46.83
55466;BME280;41329;41.594;23.810;2023-07-29T06:57:45;95171.88;;;22.03;48.53
55466;BME280;41329;41.594;23.810;2023-07-29T07:00:11;95164.53;;;22.18;47.91
55466;BME280;41329;41.594;23.810;2023-07-29T07:02:36;95169.84;;;22.41;48.00
55466;BME280;41329;41.594;23.810;2023-07-29T07:05:02;95172.91;;;22.59;47.00
55466;BME280;41329;41.594;23.810;2023-07-29T07:07:27;95158.56;;;22.66;45.82
55466;BME280;41329;41.594;23.810;2023-07-29T07:09:52;95159.88;;;22.87;46.52
55466;BME280;41329;41.594;23.810;2023-07-29T07:12:18;95156.28;;;22.74;45.23
55466;BME280;41329;41.594;23.810;2023-07-29T07:14:43;95158.88;;;22.81;45.62
55466;BME280;41329;41.594;23.810;2023-07-29T07:17:08;95159.28;;;22.92;45.43
55466;BME280;41329;41.594;23.810;2023-07-29T07:19:34;95162.19;;;23.14;45.01
55466;BME280;41329;41.594;23.810;2023-07-29T07:21:59;95158.75;;;23.19;44.79
55466;BME280;41329;41.594;23.810;2023-07-29T07:24:25;95115.56;;;23.09;43.82
55466;BME280;41329;41.594;23.810;2023-07-29T07:26:50;95152.53;;;23.36;44.01
55466;BME280;41329;41.594;23.810;2023-07-29T07:29:16;95142.94;;;23.55;43.17
55466;BME280;41329;41.594;23.810;2023-07-29T07:31:50;95148.97;;;23.66;42.86
55466;BME280;41329;41.594;23.810;2023-07-29T07:34:16;95149.63;;;23.70;42.27
55466;BME280;41329;41.594;23.810;2023-07-29T07:36:42;95141.88;;;23.83;42.77
55466;BME280;41329;41.594;23.810;2023-07-29T07:39:07;95149.81;;;23.97;41.80
55466;BME280;41329;41.594;23.810;2023-07-29T07:41:32;95142.69;;;24.14;42.69
55466;BME280;41329;41.594;23.810;2023-07-29T07:43:58;95143.53;;;24.24;41.77
55466;BME280;41329;41.594;23.810;2023-07-29T07:46:23;95134.44;;;24.29;41.43
55466;BME280;41329;41.594;23.810;2023-07-29T07:48:49;95131.16;;;24.30;41.44
55466;BME280;41329;41.594;23.810;2023-07-29T07:51:14;95118.94;;;24.42;41.13
55466;BME280;41329;41.594;23.810;2023-07-29T07:53:40;95112.75;;;24.65;40.90
55466;BME280;41329;41.594;23.810;2023-07-29T07:56:06;95113.91;;;24.86;41.05
55466;BME280;41329;41.594;23.810;2023-07-29T07:58:32;95115.66;;;25.10;40.73
55466;BME280;41329;41.594;23.810;2023-07-29T08:01:16;95112.72;;;25.32;40.74
55466;BME280;41329;41.594;23.810;2023-07-29T08:03:41;95104.84;;;25.45;39.57
55466;BME280;41329;41.594;23.810;2023-07-29T08:06:06;95122.41;;;25.76;40.09
55466;BME280;41329;41.594;23.810;2023-07-29T08:08:32;95096.13;;;25.93;39.36
55466;BME280;41329;41.594;23.810;2023-07-29T08:10:57;95115.25;;;26.16;39.33
55466;BME280;41329;41.594;23.810;2023-07-29T08:13:24;95104.50;;;26.29;38.68
55466;BME280;41329;41.594;23.810;2023-07-29T08:15:51;95091.50;;;26.46;38.96
55466;BME280;41329;41.594;23.810;2023-07-29T08:18:17;95098.38;;;26.63;39.67
55466;BME280;41329;41.594;23.810;2023-07-29T08:20:59;95087.94;;;26.93;38.68
55466;BME280;41329;41.594;23.810;2023-07-29T08:23:29;95093.47;;;27.11;37.09
55466;BME280;41329;41.594;23.810;2023-07-29T08:26:00;95095.56;;;27.10;36.88
55466;BME280;41329;41.594;23.810;2023-07-29T08:28:28;95089.84;;;27.19;37.68
55466;BME280;41329;41.594;23.810;2023-07-29T08:30:54;95089.41;;;27.35;36.67
55466;BME280;41329;41.594;23.810;2023-07-29T08:33:19;95093.47;;;27.34;36.45
55466;BME280;41329;41.594;23.810;2023-07-29T08:35:45;95091.19;;;27.47;36.48
55466;BME280;41329;41.594;23.810;2023-07-29T08:38:10;95085.09;;;27.54;36.28
55466;BME280;41329;41.594;23.810;2023-07-29T08:40:37;95085.41;;;27.56;32.81
55466;BME280;41329;41.594;23.810;2023-07-29T08:43:07;95076.56;;;27.40;33.77
55466;BME280;41329;41.594;23.810;2023-07-29T08:45:35;95077.84;;;27.53;31.58
55466;BME280;41329;41.594;23.810;2023-07-29T08:48:03;95073.38;;;27.61;33.90
55466;BME280;41329;41.594;23.810;2023-07-29T08:50:32;95069.97;;;27.87;33.60
55466;BME280;41329;41.594;23.810;2023-07-29T08:52:58;95068.69;;;28.17;34.21
55466;BME280;41329;41.594;23.810;2023-07-29T08:55:24;95072.69;;;28.39;32.99
55466;BME280;41329;41.594;23.810;2023-07-29T08:57:50;95064.72;;;28.58;31.85
55466;BME280;41329;41.594;23.810;2023-07-29T09:00:16;95057.47;;;28.77;32.23
55466;BME280;41329;41.594;23.810;2023-07-29T09:02:42;95047.44;;;28.81;30.30
55466;BME280;41329;41.594;23.810;2023-07-29T09:05:09;95056.84;;;28.87;30.77
55466;BME280;41329;41.594;23.810;2023-07-29T09:07:36;95042.28;;;29.00;30.96
55466;BME280;41329;41.594;23.810;2023-07-29T09:10:02;95048.50;;;29.18;30.37
55466;BME280;41329;41.594;23.810;2023-07-29T09:12:28;95044.28;;;29.34;30.44
55466;BME280;41329;41.594;23.810;2023-07-29T09:14:54;95046.25;;;29.48;29.93
55466;BME280;41329;41.594;23.810;2023-07-29T09:17:20;95035.63;;;29.68;29.51
55466;BME280;41329;41.594;23.810;2023-07-29T09:19:48;95034.94;;;29.79;28.12
55466;BME280;41329;41.594;23.810;2023-07-29T09:22:18;95029.50;;;30.06;29.85
55466;BME280;41329;41.594;23.810;2023-07-29T09:24:45;95022.94;;;30.26;27.84
55466;BME280;41329;41.594;23.810;2023-07-29T09:27:23;95021.69;;;30.32;27.00
55466;BME280;41329;41.594;23.810;2023-07-29T09:29:48;95013.13;;;30.32;26.91
55466;BME280;41329;41.594;23.810;2023-07-29T09:32:21;95015.81;;;30.47;27.84
55466;BME280;41329;41.594;23.810;2023-07-29T09:34:47;95004.75;;;30.60;27.69
55466;BME280;41329;41.594;23.810;2023-07-29T09:37:22;95015.06;;;30.88;27.01
55466;BME280;41329;41.594;23.810;2023-07-29T09:39:49;94995.88;;;31.00;28.86
55466;BME280;41329;41.594;23.810;2023-07-29T09:42:19;95010.84;;;31.26;26.33
55466;BME280;41329;41.594;23.810;2023-07-29T09:44:45;95014.72;;;31.23;26.07
55466;BME280;41329;41.594;23.810;2023-07-29T09:47:25;95003.63;;;31.41;25.22
55466;BME280;41329;41.594;23.810;2023-07-29T09:49:51;95010.63;;;31.46;25.15
55466;BME280;41329;41.594;23.810;2023-07-29T09:52:18;94988.31;;;30.91;23.90
55466;BME280;41329;41.594;23.810;2023-07-29T09:54:44;95003.78;;;31.21;25.26
55466;BME280;41329;41.594;23.810;2023-07-29T09:57:18;94998.16;;;31.38;24.50
55466;BME280;41329;41.594;23.810;2023-07-29T09:59:54;94987.03;;;31.51;23.91
55466;BME280;41329;41.594;23.810;2023-07-29T10:02:20;94989.63;;;31.60;24.81
55466;BME280;41329;41.594;23.810;2023-07-29T10:04:46;94975.59;;;31.73;24.48
55466;BME280;41329;41.594;23.810;2023-07-29T10:07:12;94972.78;;;31.84;24.14
55466;BME280;41329;41.594;23.810;2023-07-29T10:09:39;94961.34;;;31.89;25.38
55466;BME280;41329;41.594;23.810;2023-07-29T10:12:06;94969.13;;;31.94;24.52
55466;BME280;41329;41.594;23.810;2023-07-29T10:14:32;94972.53;;;32.09;24.13
55466;BME280;41329;41.594;23.810;2023-07-29T10:16:58;94976.44;;;32.17;23.84
55466;BME280;41329;41.594;23.810;2023-07-29T10:19:25;94966.06;;;32.31;24.96
55466;BME280;41329;41.594;23.810;2023-07-29T10:21:51;94967.56;;;32.60;25.18
55466;BME280;41329;41.594;23.810;2023-07-29T10:24:24;94971.13;;;32.93;24.14
55466;BME280;41329;41.594;23.810;2023-07-29T10:26:59;94955.75;;;32.96;23.43
55466;BME280;41329;41.594;23.810;2023-07-29T10:29:29;94956.69;;;33.21;24.18
55466;BME280;41329;41.594;23.810;2023-07-29T10:31:57;94959.44;;;33.48;23.98
55466;BME280;41329;41.594;23.810;2023-07-29T10:34:23;94947.03;;;33.70;23.55
55466;BME280;41329;41.594;23.810;2023-07-29T10:36:49;94935.19;;;33.90;24.23
55466;BME280;41329;41.594;23.810;2023-07-29T10:39:15;94941.19;;;34.21;23.38
55466;BME280;41329;41.594;23.810;2023-07-29T10:42:01;94928.38;;;34.22;21.79
55466;BME280;41329;41.594;23.810;2023-07-29T10:47:15;94925.91;;;34.37;22.70
55466;BME280;41329;41.594;23.810;2023-07-29T10:49:41;94931.72;;;34.26;21.64
55466;BME280;41329;41.594;23.810;2023-07-29T10:52:07;94913.88;;;34.09;22.00
55466;BME280;41329;41.594;23.810;2023-07-29T10:54:46;94924.06;;;34.40;21.72
55466;BME280;41329;41.594;23.810;2023-07-29T10:57:30;94921.72;;;34.38;21.86
55466;BME280;41329;41.594;23.810;2023-07-29T10:59:56;94911.19;;;34.46;21.95
55466;BME280;41329;41.594;23.810;2023-07-29T11:02:29;94912.41;;;34.27;20.82
55466;BME280;41329;41.594;23.810;2023-07-29T11:04:54;94892.31;;;34.27;21.79
55466;BME280;41329;41.594;23.810;2023-07-29T11:07:21;94891.66;;;34.39;21.90
55466;BME280;41329;41.594;23.810;2023-07-29T11:12:49;94908.31;;;34.46;21.95
55466;BME280;41329;41.594;23.810;2023-07-29T11:15:29;94898.19;;;34.10;21.77
55466;BME280;41329;41.594;23.810;2023-07-29T11:17:59;94888.56;;;34.08;22.60
55466;BME280;41329;41.594;23.810;2023-07-29T11:20:26;94889.09;;;34.36;22.85
55466;BME280;41329;41.594;23.810;2023-07-29T11:22:57;94892.03;;;34.54;22.88
55466;BME280;41329;41.594;23.810;2023-07-29T11:25:24;94868.53;;;34.26;22.73
55466;BME280;41329;41.594;23.810;2023-07-29T11:27:54;94877.63;;;34.36;22.20
55466;BME280;41329;41.594;23.810;2023-07-29T11:30:20;94893.00;;;34.38;21.78
55466;BME280;41329;41.594;23.810;2023-07-29T11:32:46;94881.19;;;34.42;22.71
55466;BME280;41329;41.594;23.810;2023-07-29T11:35:16;94896.56;;;34.68;21.82
55466;BME280;41329;41.594;23.810;2023-07-29T11:37:47;94878.22;;;34.53;21.10
55466;BME280;41329;41.594;23.810;2023-07-29T11:40:20;94868.16;;;34.65;21.22
55466;BME280;41329;41.594;23.810;2023-07-29T11:42:47;94869.69;;;34.42;21.38
55466;BME280;41329;41.594;23.810;2023-07-29T11:45:14;94882.88;;;34.56;22.36
55466;BME280;41329;41.594;23.810;2023-07-29T11:47:39;94880.41;;;34.65;21.89
55466;BME280;41329;41.594;23.810;2023-07-29T11:50:06;94863.84;;;34.53;21.90
55466;BME280;41329;41.594;23.810;2023-07-29T11:52:35;94853.41;;;34.74;22.05
55466;BME280;41329;41.594;23.810;2023-07-29T11:55:01;94873.19;;;35.01;22.41
55466;BME280;41329;41.594;23.810;2023-07-29T11:57:28;94863.09;;;34.95;21.81
55466;BME280;41329;41.594;23.810;2023-07-29T11:59:54;94869.19;;;35.10;22.08
55466;BME280;41329;41.594;23.810;2023-07-29T12:02:20;94864.59;;;35.20;21.80
55466;BME280;41329;41.594;23.810;2023-07-29T12:04:47;94850.16;;;35.44;22.06
55466;BME280;41329;41.594;23.810;2023-07-29T12:07:13;94852.59;;;35.71;21.03
55466;BME280;41329;41.594;23.810;2023-07-29T12:09:40;94850.28;;;35.51;21.57
55466;BME280;41329;41.594;23.810;2023-07-29T12:12:07;94842.22;;;35.31;21.77
55466;BME280;41329;41.594;23.810;2023-07-29T12:14:33;94849.03;;;35.28;21.48
55466;BME280;41329;41.594;23.810;2023-07-29T12:17:04;94854.91;;;35.41;22.02
55466;BME280;41329;41.594;23.810;2023-07-29T12:19:33;94847.81;;;35.42;22.30
55466;BME280;41329;41.594;23.810;2023-07-29T12:22:00;94828.25;;;35.54;22.36
55466;BME280;41329;41.594;23.810;2023-07-29T12:24:26;94836.13;;;35.85;21.89
55466;BME280;41329;41.594;23.810;2023-07-29T12:26:52;94829.66;;;35.97;22.04
55466;BME280;41329;41.594;23.810;2023-07-29T12:29:19;94816.09;;;35.79;21.53
55466;BME280;41329;41.594;23.810;2023-07-29T12:31:48;94828.31;;;35.98;22.26
55466;BME280;41329;41.594;23.810;2023-07-29T12:34:20;94820.47;;;35.67;21.70
55466;BME280;41329;41.594;23.810;2023-07-29T12:36:48;94821.75;;;35.66;21.22
55466;BME280;41329;41.594;23.810;2023-07-29T12:39:18;94825.22;;;35.65;21.81
55466;BME280;41329;41.594;23.810;2023-07-29T12:41:44;94814.88;;;35.56;21.97
55466;BME280;41329;41.594;23.810;2023-07-29T12:44:09;94816.44;;;35.39;22.86
55466;BME280;41329;41.594;23.810;2023-07-29T12:46:34;94815.56;;;35.31;24.27
55466;BME280;41329;41.594;23.810;2023-07-29T12:49:00;94808.00;;;35.09;23.92
55466;BME280;41329;41.594;23.810;2023-07-29T12:51:25;94810.88;;;35.09;24.30
55466;BME280;41329;41.594;23.810;2023-07-29T12:53:51;94818.66;;;34.72;23.50
55466;BME280;41329;41.594;23.810;2023-07-29T12:56:16;94806.91;;;34.94;23.87